Azle, TX

2:08 PM CST on November 27, 2014 (GMT -0600)
South of 199 | Change Station
CLOSE
Current Station
Personal Weather Station
Location: Sanctuary, TX
Elevation: 800 ft
Nearby Weather Stations

Elev 800 ft 32.91 °N, 97.59 °W | Updated 1 second ago

Clear
Clear
56.6 °F
Feels Like 56.6 °F
N
0.0
Wind Variable Wind from North
Gusts 4.0 mph

Today
High -- | Low -- °F
--% Chance of Precip.
Yesterday
High -- | Low -- °F
Precip. -- in
7:11 AM 5:24 PM
Waxing Crescent, 32% visible
Pressure 30.44 in
Visibility 10.0 miles
Clouds Clear
Dew Point 25 °F
Humidity 29%
Rainfall 0.00 in
Snow Depth Not available.
UV 3 out of 12
Pollen 4.70 out of 12
Air Quality Not available.
Flu Activity Not available.
METAR KNFW 271952Z AUTO 00000KT 10SM CLR 16/M07 A3050 RMK AO2 SLP307 T01561072

More Conditions Fewer Conditions

Pressure 30.44 in
Visibility 10.0 miles
Clouds Clear
Dew Point 25 °F
Humidity 29%
Rainfall 0.00 in
Snow Depth Not available.
UV 3 out of 12
Pollen 4.70 out of 12
Air Quality Not available.
Flu Activity Not available.
METAR KNFW 271952Z AUTO 00000KT 10SM CLR 16/M07 A3050 RMK AO2 SLP307 T01561072

More Conditions Fewer Conditions

10-Day Weather Forecast

Almanac

Astronomy

Nov. 27, 2014 Rise Set
Actual Time
Civil Twilight
Nautical Twilight
Astronomical Twilight
Moon
Length of Visible Light
Length of Day
Tomorrow will be .
, % of the Moon is Illuminated

Today's Extremes

State Highs State Lows

Community

WunderPhotos

Upload Photos

1,774,095 photos uploaded!

WunderBlogs® & News

Nearby

Air Quality

  Air Quality AQ Index Pollutant
Not available.

Snow Depth

Station Depth Elevation

Earthquake Activity

City Distance Mag. Time & Date
Minimum magnitude displayed is 2.5.

Coastal Water Temperatures

Place Temperature

Nearby Weather Stations